Time;durP1;ratioP1;P1;durP2;ratioP2;P2;SDS_P1;SDS_P2;PMS_P1;PMS_P2;Temp;Humidity;BMP_temperature;BMP_pressure;BME280_temperature;BME280_humidity;BME280_pressure;Samples;Min_cycle;Max_cycle;Signal;HPM_P1;HPM_P2
2024/02/04 00:01:46;;;;;;;44.97;42.67;;;;;;;;;;5033902;28;20033;-52
2024/02/04 00:04:12;;;;;;;47.05;44.65;;;;;;;;;;5038160;28;20052;-49
2024/02/04 00:06:37;;;;;;;44.85;42.55;;;;;;;;;;5035097;28;20033;-54
2024/02/04 00:09:04;;;;;;;48.03;45.63;;;;;;;;;;5034077;28;20037;-52
2024/02/04 00:11:29;;;;;;;46.85;44.47;;;;;;;;;;5034984;28;20036;-53
2024/02/04 00:13:55;;;;;;;47.08;44.67;;;;;;;;;;5032799;28;20045;-61
2024/02/04 00:16:20;;;;;;;48.17;45.75;;;;;;;;;;5033664;28;20036;-61
2024/02/04 00:18:45;;;;;;;45.53;43.22;;;;;;;;;;5032174;28;20154;-49
2024/02/04 00:21:11;;;;;;;48.80;46.33;;;;;;;;;;5033610;28;20029;-52
2024/02/04 00:23:36;;;;;;;45.53;43.15;;;;;;;;;;5037493;28;20044;-60
2024/02/04 00:26:02;;;;;;;46.60;44.22;;;;;;;;;;5036875;28;20047;-60
2024/02/04 00:28:28;;;;;;;44.67;42.40;;;;;;;;;;5034976;28;20041;-50
2024/02/04 00:30:55;;;;;;;50.95;48.35;;;;;;;;;;5034683;28;20024;-61
2024/02/04 00:33:21;;;;;;;49.22;46.72;;;;;;;;;;5035280;28;20044;-61
2024/02/04 00:35:46;;;;;;;45.00;42.70;;;;;;;;;;5032153;28;20037;-62
2024/02/04 00:38:12;;;;;;;50.42;47.88;;;;;;;;;;5033575;28;20029;-61
2024/02/04 00:40:37;;;;;;;51.75;49.15;;;;;;;;;;5035456;28;20037;-61
2024/02/04 00:43:03;;;;;;;56.28;53.40;;;;;;;;;;5030218;28;20034;-62
2024/02/04 00:45:28;;;;;;;50.97;48.40;;;;;;;;;;5035918;28;20029;-61
2024/02/04 00:47:53;;;;;;;53.25;50.55;;;;;;;;;;5033092;28;20048;-61
2024/02/04 00:50:19;;;;;;;51.80;49.20;;;;;;;;;;5034244;28;20033;-61
2024/02/04 00:52:44;;;;;;;51.53;48.92;;;;;;;;;;5032237;28;20036;-62
2024/02/04 00:55:09;;;;;;;51.15;48.55;;;;;;;;;;5036041;28;20047;-61
2024/02/04 00:57:35;;;;;;;53.88;51.15;;;;;;;;;;5035304;28;20487;-61
2024/02/04 01:00:00;;;;;;;52.08;49.47;;;;;;;;;;5029202;28;20042;-61
2024/02/04 01:02:26;;;;;;;51.17;48.58;;;;;;;;;;5034992;28;20475;-50
2024/02/04 01:04:51;;;;;;;51.78;49.17;;;;;;;;;;5031798;28;20048;-54
2024/02/04 01:07:17;;;;;;;52.58;49.90;;;;;;;;;;5034409;28;20064;-61
2024/02/04 01:09:42;;;;;;;53.00;50.22;;;;;;;;;;5032115;28;20041;-61
2024/02/04 01:12:08;;;;;;;50.08;47.47;;;;;;;;;;5033541;28;20095;-61
2024/02/04 01:14:34;;;;;;;48.35;45.95;;;;;;;;;;5037156;28;20025;-61
2024/02/04 01:16:59;;;;;;;49.55;47.05;;;;;;;;;;5030438;28;20036;-62
2024/02/04 01:19:24;;;;;;;49.58;47.08;;;;;;;;;;5033878;28;20041;-61
2024/02/04 01:21:49;;;;;;;51.33;48.75;;;;;;;;;;5031399;28;20029;-62
2024/02/04 01:24:15;;;;;;;50.20;47.70;;;;;;;;;;5032729;28;20086;-62
2024/02/04 01:26:40;;;;;;;49.63;47.13;;;;;;;;;;5034581;28;20036;-62
2024/02/04 01:29:05;;;;;;;48.60;46.13;;;;;;;;;;5035722;28;20035;-62
2024/02/04 01:31:31;;;;;;;49.65;47.15;;;;;;;;;;5033332;28;20025;-62
2024/02/04 01:33:56;;;;;;;49.10;46.60;;;;;;;;;;5031010;28;20811;-62
2024/02/04 01:36:22;;;;;;;51.95;49.30;;;;;;;;;;5030785;28;20362;-60
2024/02/04 01:38:47;;;;;;;49.92;47.42;;;;;;;;;;5030639;28;20055;-62
2024/02/04 01:41:12;;;;;;;47.20;44.75;;;;;;;;;;5032939;28;20371;-62
2024/02/04 01:43:38;;;;;;;46.38;44.00;;;;;;;;;;5032657;28;20037;-61
2024/02/04 01:46:03;;;;;;;45.33;43.03;;;;;;;;;;5032196;28;20116;-62
2024/02/04 01:48:29;;;;;;;48.25;45.78;;;;;;;;;;5030606;28;20052;-62
2024/02/04 01:50:59;;;;;;;53.03;50.28;;;;;;;;;;5031043;28;20040;-62
2024/02/04 01:53:26;;;;;;;46.78;44.40;;;;;;;;;;5031951;28;20072;-62
2024/02/04 01:55:52;;;;;;;50.03;47.50;;;;;;;;;;5030766;28;20034;-62
2024/02/04 01:58:17;;;;;;;52.35;49.70;;;;;;;;;;5031516;28;20532;-62
2024/02/04 02:00:43;;;;;;;68.40;64.97;;;;;;;;;;5030835;28;20069;-63
2024/02/04 02:03:11;;;;;;;83.55;79.38;;;;;;;;;;5029558;28;20035;-61
2024/02/04 02:05:37;;;;;;;100.35;94.28;;;;;;;;;;5033168;28;20463;-50
2024/02/04 02:08:02;;;;;;;112.20;106.53;;;;;;;;;;5033132;28;20131;-55
2024/02/04 02:10:28;;;;;;;127.80;121.38;;;;;;;;;;5034296;28;20579;-52
2024/02/04 02:13:04;;;;;;;142.15;135.00;;;;;;;;;;5031272;28;20428;-52
2024/02/04 02:15:36;;;;;;;144.45;137.18;;;;;;;;;;5031733;28;20059;-53
2024/02/04 02:18:35;;;;;;;145.30;137.95;;;;;;;;;;5032823;28;20048;-54
2024/02/04 02:21:17;;;;;;;163.02;154.88;;;;;;;;;;5048204;28;20061;-54
2024/02/04 02:23:56;;;;;;;164.50;156.20;;;;;;;;;;5029826;28;20041;-53
2024/02/04 02:26:21;;;;;;;191.80;182.13;;;;;;;;;;5032852;28;20414;-56
2024/02/04 02:28:47;;;;;;;206.10;195.73;;;;;;;;;;5031537;28;20163;-54
2024/02/04 02:31:12;;;;;;;207.93;197.43;;;;;;;;;;5031654;28;20026;-63
2024/02/04 02:33:37;;;;;;;208.98;198.52;;;;;;;;;;5031272;28;20359;-53
2024/02/04 02:36:10;;;;;;;212.80;202.18;;;;;;;;;;5032797;28;20037;-62
2024/02/04 02:38:46;;;;;;;210.57;200.02;;;;;;;;;;5031189;28;20052;-62
2024/02/04 02:41:13;;;;;;;199.85;189.90;;;;;;;;;;5031038;28;20489;-64
2024/02/04 02:43:41;;;;;;;214.00;203.27;;;;;;;;;;5034863;28;20049;-62
2024/02/04 02:46:07;;;;;;;207.13;196.80;;;;;;;;;;5034681;28;20432;-54
2024/02/04 02:48:33;;;;;;;203.45;193.32;;;;;;;;;;5036577;28;20059;-54
2024/02/04 02:50:58;;;;;;;216.60;205.82;;;;;;;;;;5037198;28;20038;-53
2024/02/04 02:53:24;;;;;;;215.75;205.05;;;;;;;;;;5035607;28;20135;-57
2024/02/04 02:55:49;;;;;;;217.63;206.80;;;;;;;;;;5035628;28;20102;-57
2024/02/04 02:58:14;;;;;;;232.65;221.13;;;;;;;;;;5034488;28;20035;-56
2024/02/04 03:00:40;;;;;;;228.55;217.20;;;;;;;;;;5028323;28;20057;-56
2024/02/04 03:03:05;;;;;;;226.00;214.75;;;;;;;;;;5035392;28;20148;-57
2024/02/04 03:05:31;;;;;;;233.13;221.60;;;;;;;;;;5036636;28;20040;-55
2024/02/04 03:07:57;;;;;;;237.13;225.35;;;;;;;;;;5034977;28;20096;-52
2024/02/04 03:10:22;;;;;;;225.32;214.20;;;;;;;;;;5034037;28;20025;-56
2024/02/04 03:12:47;;;;;;;222.60;211.60;;;;;;;;;;5033151;28;20697;-54
2024/02/04 03:15:13;;;;;;;237.10;225.38;;;;;;;;;;5035269;28;20052;-55
2024/02/04 03:17:38;;;;;;;232.35;220.82;;;;;;;;;;5036803;28;20033;-61
2024/02/04 03:20:04;;;;;;;235.20;223.57;;;;;;;;;;5035236;28;20048;-63
2024/02/04 03:22:29;;;;;;;244.38;232.32;;;;;;;;;;5034757;28;20064;-62
2024/02/04 03:24:55;;;;;;;240.85;228.93;;;;;;;;;;5036582;28;20060;-62
2024/02/04 03:27:20;;;;;;;243.52;231.52;;;;;;;;;;5036013;28;20025;-63
2024/02/04 03:29:46;;;;;;;250.02;237.63;;;;;;;;;;5036158;28;20098;-62
2024/02/04 03:32:11;;;;;;;257.55;244.82;;;;;;;;;;5035941;28;20072;-62
2024/02/04 03:34:37;;;;;;;250.80;238.48;;;;;;;;;;5034569;28;20037;-62
2024/02/04 03:37:02;;;;;;;247.57;235.30;;;;;;;;;;5032682;28;20071;-57
2024/02/04 03:39:28;;;;;;;256.02;243.38;;;;;;;;;;5032112;28;20044;-53
2024/02/04 03:41:53;;;;;;;245.98;233.77;;;;;;;;;;5033200;28;20033;-52
2024/02/04 03:44:18;;;;;;;254.68;241.98;;;;;;;;;;5034258;28;20033;-52
2024/02/04 03:46:48;;;;;;;245.20;233.07;;;;;;;;;;5033081;28;20052;-54
2024/02/04 03:49:14;;;;;;;232.70;221.15;;;;;;;;;;5035437;28;20344;-55
2024/02/04 03:51:39;;;;;;;224.35;213.25;;;;;;;;;;5035526;28;20100;-55
2024/02/04 03:54:04;;;;;;;228.57;217.30;;;;;;;;;;5031884;28;20065;-55
2024/02/04 03:56:30;;;;;;;219.77;208.85;;;;;;;;;;5034901;28;20048;-56
2024/02/04 03:58:56;;;;;;;219.45;208.57;;;;;;;;;;5032224;28;20065;-55
2024/02/04 04:01:21;;;;;;;221.98;211.02;;;;;;;;;;5032918;28;20469;-55
2024/02/04 04:03:46;;;;;;;215.43;204.75;;;;;;;;;;5034740;28;20041;-55
2024/02/04 04:06:12;;;;;;;223.32;212.27;;;;;;;;;;5032494;28;20040;-56
2024/02/04 04:08:37;;;;;;;221.68;210.75;;;;;;;;;;5035022;28;20119;-54
2024/02/04 04:11:04;;;;;;;204.38;194.18;;;;;;;;;;5035380;28;20113;-54
2024/02/04 04:13:29;;;;;;;209.57;199.20;;;;;;;;;;5029323;28;20040;-56
2024/02/04 04:15:54;;;;;;;208.10;197.82;;;;;;;;;;5032245;28;20029;-56
2024/02/04 04:18:20;;;;;;;205.40;195.25;;;;;;;;;;5035676;28;20048;-55
2024/02/04 04:20:45;;;;;;;209.57;199.25;;;;;;;;;;5033998;28;20578;-55
2024/02/04 04:23:12;;;;;;;205.77;195.57;;;;;;;;;;5030448;28;20115;-61
2024/02/04 04:25:37;;;;;;;193.00;183.45;;;;;;;;;;5033310;28;20371;-62
2024/02/04 04:28:03;;;;;;;197.85;187.98;;;;;;;;;;5031635;28;20029;-63
2024/02/04 04:30:28;;;;;;;202.10;192.10;;;;;;;;;;5032588;28;20033;-63
2024/02/04 04:32:53;;;;;;;212.90;202.38;;;;;;;;;;5033588;28;20029;-63
2024/02/04 04:35:19;;;;;;;216.55;205.88;;;;;;;;;;5029963;28;20037;-62
2024/02/04 04:37:44;;;;;;;211.00;200.55;;;;;;;;;;5035951;28;20030;-62
2024/02/04 04:40:10;;;;;;;209.30;198.95;;;;;;;;;;5033562;28;20037;-55
2024/02/04 04:42:35;;;;;;;207.88;197.63;;;;;;;;;;5033344;28;20367;-63
2024/02/04 04:45:00;;;;;;;203.45;193.40;;;;;;;;;;5033869;28;20098;-62
2024/02/04 04:47:26;;;;;;;193.50;183.93;;;;;;;;;;5032877;28;20445;-62
2024/02/04 04:49:51;;;;;;;191.23;181.75;;;;;;;;;;5032841;28;20033;-62
2024/02/04 04:52:17;;;;;;;192.10;182.57;;;;;;;;;;5032851;28;20098;-61
2024/02/04 04:54:42;;;;;;;190.55;181.13;;;;;;;;;;5033104;28;20627;-62
2024/02/04 04:57:08;;;;;;;193.90;184.32;;;;;;;;;;5030949;28;20045;-53
2024/02/04 04:59:33;;;;;;;201.25;191.32;;;;;;;;;;5030318;28;20033;-53
2024/02/04 05:01:58;;;;;;;199.05;189.20;;;;;;;;;;5034333;28;20102;-51
2024/02/04 05:04:25;;;;;;;200.88;190.73;;;;;;;;;;5032849;28;20045;-61
2024/02/04 05:06:51;;;;;;;198.95;189.10;;;;;;;;;;5027784;28;20059;-62
2024/02/04 05:09:16;;;;;;;209.65;199.27;;;;;;;;;;5029896;28;20603;-63
2024/02/04 05:11:41;;;;;;;205.77;195.63;;;;;;;;;;5031272;28;20033;-62
2024/02/04 05:14:07;;;;;;;207.38;197.10;;;;;;;;;;5032304;28;20107;-51
2024/02/04 05:16:32;;;;;;;208.88;198.55;;;;;;;;;;5030426;28;20033;-53
2024/02/04 05:18:58;;;;;;;205.13;194.93;;;;;;;;;;5030902;28;20037;-62
2024/02/04 05:21:23;;;;;;;204.43;194.32;;;;;;;;;;5030182;28;20037;-62
2024/02/04 05:23:48;;;;;;;199.00;189.23;;;;;;;;;;5032804;28;20033;-62
2024/02/04 05:26:17;;;;;;;200.02;190.13;;;;;;;;;;5034544;28;20028;-54
2024/02/04 05:28:42;;;;;;;203.65;193.63;;;;;;;;;;5032105;28;20476;-61
2024/02/04 05:31:08;;;;;;;200.13;190.23;;;;;;;;;;5032059;28;20087;-54
2024/02/04 05:33:33;;;;;;;186.13;176.88;;;;;;;;;;5033406;28;20112;-56
2024/02/04 05:35:58;;;;;;;186.27;177.02;;;;;;;;;;5032905;28;20040;-55
2024/02/04 05:38:24;;;;;;;189.77;180.38;;;;;;;;;;5031076;28;20098;-51
2024/02/04 05:40:49;;;;;;;191.50;182.02;;;;;;;;;;5034081;28;20463;-55
2024/02/04 05:43:16;;;;;;;189.10;179.73;;;;;;;;;;5029353;28;20041;-54
2024/02/04 05:45:41;;;;;;;195.98;186.30;;;;;;;;;;5035070;28;20041;-55
2024/02/04 05:48:08;;;;;;;185.00;175.85;;;;;;;;;;5031536;28;20035;-53
2024/02/04 05:50:33;;;;;;;180.30;171.35;;;;;;;;;;5023955;28;20033;-53
2024/02/04 05:52:58;;;;;;;186.88;177.65;;;;;;;;;;5032296;28;20041;-54
2024/02/04 05:55:24;;;;;;;184.23;175.07;;;;;;;;;;5031326;28;20068;-54
2024/02/04 05:57:49;;;;;;;180.77;171.77;;;;;;;;;;5031157;28;20045;-63
2024/02/04 06:00:15;;;;;;;179.75;170.82;;;;;;;;;;5032936;28;20029;-61
2024/02/04 06:02:42;;;;;;;169.05;160.63;;;;;;;;;;5031836;28;20434;-61
2024/02/04 06:05:09;;;;;;;172.27;163.68;;;;;;;;;;5032218;28;20447;-51
2024/02/04 06:07:34;;;;;;;182.32;173.32;;;;;;;;;;5041718;28;20120;-61
2024/02/04 06:10:01;;;;;;;172.80;164.20;;;;;;;;;;5033607;28;20132;-52
2024/02/04 06:12:26;;;;;;;171.48;162.98;;;;;;;;;;5030330;28;20366;-52
2024/02/04 06:14:51;;;;;;;161.68;153.57;;;;;;;;;;5013515;28;20041;-49
2024/02/04 06:17:17;;;;;;;160.40;152.35;;;;;;;;;;5032921;28;20032;-51
2024/02/04 06:19:42;;;;;;;171.98;163.40;;;;;;;;;;5032553;28;20040;-52
2024/02/04 06:22:07;;;;;;;158.82;150.90;;;;;;;;;;5034153;28;20103;-53
2024/02/04 06:24:33;;;;;;;156.13;148.25;;;;;;;;;;5033332;28;20061;-63
2024/02/04 06:26:58;;;;;;;162.73;154.65;;;;;;;;;;5031289;28;20036;-54
2024/02/04 06:29:23;;;;;;;151.43;143.82;;;;;;;;;;5036258;28;20034;-50
2024/02/04 06:31:49;;;;;;;161.35;153.30;;;;;;;;;;5037216;28;20459;-50
2024/02/04 06:34:15;;;;;;;160.93;152.85;;;;;;;;;;5034139;28;20029;-51
2024/02/04 06:36:44;;;;;;;162.90;154.80;;;;;;;;;;5034350;28;20364;-54
2024/02/04 06:39:10;;;;;;;152.93;145.27;;;;;;;;;;5036202;28;20041;-55
2024/02/04 06:41:35;;;;;;;155.48;147.68;;;;;;;;;;5032282;28;20095;-51
2024/02/04 06:44:03;;;;;;;158.10;150.18;;;;;;;;;;5035316;28;20041;-52
2024/02/04 06:46:28;;;;;;;150.85;143.30;;;;;;;;;;5033754;28;20032;-52
2024/02/04 06:48:53;;;;;;;149.07;141.65;;;;;;;;;;5037971;28;20523;-49
2024/02/04 06:51:19;;;;;;;147.15;139.80;;;;;;;;;;5034196;28;20142;-50
2024/02/04 06:53:45;;;;;;;147.25;139.88;;;;;;;;;;5036888;28;20048;-51
2024/02/04 06:56:10;;;;;;;147.52;140.15;;;;;;;;;;5029007;28;20103;-52
2024/02/04 06:58:39;;;;;;;145.07;137.82;;;;;;;;;;5031120;28;20041;-51
2024/02/04 07:01:05;;;;;;;143.88;136.73;;;;;;;;;;5031336;28;20043;-52
2024/02/04 07:03:30;;;;;;;136.10;129.27;;;;;;;;;;5032873;28;20038;-53
2024/02/04 07:05:57;;;;;;;137.23;130.35;;;;;;;;;;5033991;28;20069;-54
2024/02/04 07:08:22;;;;;;;141.65;134.55;;;;;;;;;;5036199;28;20113;-55
2024/02/04 07:10:48;;;;;;;145.50;138.23;;;;;;;;;;5037318;28;20561;-53
2024/02/04 07:13:13;;;;;;;139.88;132.93;;;;;;;;;;5032824;28;20043;-55
2024/02/04 07:15:38;;;;;;;136.05;129.25;;;;;;;;;;5031762;28;20056;-51
2024/02/04 07:18:04;;;;;;;136.40;129.57;;;;;;;;;;5031983;28;20029;-60
2024/02/04 07:20:29;;;;;;;139.65;132.65;;;;;;;;;;5034941;28;20047;-60
2024/02/04 07:22:55;;;;;;;142.43;135.32;;;;;;;;;;5034778;28;20368;-61
2024/02/04 07:25:20;;;;;;;133.32;126.63;;;;;;;;;;5036111;28;20106;-61
2024/02/04 07:27:46;;;;;;;142.75;135.65;;;;;;;;;;5033091;28;20033;-60
2024/02/04 07:30:11;;;;;;;141.63;134.55;;;;;;;;;;5035240;28;20033;-61
2024/02/04 07:32:37;;;;;;;135.77;128.98;;;;;;;;;;5032547;28;20054;-60
2024/02/04 07:35:03;;;;;;;143.45;136.30;;;;;;;;;;5037163;28;20619;-60
2024/02/04 07:37:28;;;;;;;140.40;133.40;;;;;;;;;;5033910;28;20474;-61
2024/02/04 07:39:53;;;;;;;133.10;126.45;;;;;;;;;;5032468;28;20052;-60
2024/02/04 07:42:19;;;;;;;134.15;127.40;;;;;;;;;;5033223;28;20029;-54
2024/02/04 07:44:44;;;;;;;133.27;126.57;;;;;;;;;;5034403;28;20037;-60
2024/02/04 07:47:09;;;;;;;132.25;125.63;;;;;;;;;;5033933;28;20529;-60
2024/02/04 07:49:35;;;;;;;133.18;126.53;;;;;;;;;;5035074;28;20045;-52
2024/02/04 07:52:00;;;;;;;133.43;126.75;;;;;;;;;;5035029;28;20041;-60
2024/02/04 07:54:26;;;;;;;134.88;128.10;;;;;;;;;;5037692;28;20124;-52
2024/02/04 07:56:51;;;;;;;129.50;123.03;;;;;;;;;;5034086;28;20025;-61
2024/02/04 07:59:16;;;;;;;129.38;122.90;;;;;;;;;;5032858;28;20401;-54
2024/02/04 08:01:42;;;;;;;139.70;132.68;;;;;;;;;;5034347;28;20029;-61
2024/02/04 08:04:10;;;;;;;135.25;128.48;;;;;;;;;;5034246;28;20030;-54
2024/02/04 08:06:37;;;;;;;136.77;129.93;;;;;;;;;;5037506;28;20068;-60
2024/02/04 08:09:03;;;;;;;134.25;127.53;;;;;;;;;;5034467;28;20033;-54
2024/02/04 08:11:28;;;;;;;132.98;126.32;;;;;;;;;;5035036;28;20029;-60
2024/02/04 08:13:53;;;;;;;134.35;127.63;;;;;;;;;;5036739;28;20029;-60
2024/02/04 08:16:20;;;;;;;133.05;126.40;;;;;;;;;;5033110;28;20041;-60
2024/02/04 08:18:45;;;;;;;136.35;129.52;;;;;;;;;;5033847;28;20032;-60
2024/02/04 08:21:11;;;;;;;136.77;129.95;;;;;;;;;;5035751;28;20049;-59
2024/02/04 08:23:36;;;;;;;129.68;123.10;;;;;;;;;;5032467;28;20033;-56
2024/02/04 08:26:02;;;;;;;137.25;130.40;;;;;;;;;;5026756;28;20548;-60
2024/02/04 08:28:27;;;;;;;130.15;123.65;;;;;;;;;;5027362;28;20502;-60
2024/02/04 08:30:53;;;;;;;134.98;128.23;;;;;;;;;;5031587;28;20112;-60
2024/02/04 08:33:18;;;;;;;127.25;120.88;;;;;;;;;;5035805;28;20672;-60
2024/02/04 08:35:44;;;;;;;129.00;122.57;;;;;;;;;;5034898;28;20036;-60
2024/02/04 08:38:09;;;;;;;136.07;129.27;;;;;;;;;;5032873;28;20037;-60
2024/02/04 08:40:34;;;;;;;137.93;131.00;;;;;;;;;;5032087;28;20025;-60
2024/02/04 08:43:00;;;;;;;130.02;123.50;;;;;;;;;;5031735;28;20109;-60
2024/02/04 08:45:25;;;;;;;136.73;129.88;;;;;;;;;;5035016;28;20630;-60
2024/02/04 08:47:50;;;;;;;137.00;130.13;;;;;;;;;;5034668;28;20052;-52
2024/02/04 08:50:16;;;;;;;133.23;126.55;;;;;;;;;;5031057;28;20025;-52
2024/02/04 08:52:42;;;;;;;140.77;133.70;;;;;;;;;;5032059;28;20049;-51
2024/02/04 08:55:08;;;;;;;132.20;125.65;;;;;;;;;;5035768;28;20044;-50
2024/02/04 08:57:34;;;;;;;145.05;137.80;;;;;;;;;;5032268;28;20110;-61
2024/02/04 08:59:59;;;;;;;141.13;134.07;;;;;;;;;;5033782;28;20546;-53
2024/02/04 09:02:25;;;;;;;133.90;127.20;;;;;;;;;;5035500;28;20029;-55
2024/02/04 09:04:50;;;;;;;132.60;125.95;;;;;;;;;;5033342;28;20637;-54
2024/02/04 09:07:15;;;;;;;122.95;116.82;;;;;;;;;;5035113;28;20029;-54
2024/02/04 09:09:41;;;;;;;108.80;103.40;;;;;;;;;;5030110;28;20040;-55
2024/02/04 09:12:08;;;;;;;99.60;94.63;;;;;;;;;;5030751;28;20064;-54
2024/02/04 09:14:33;;;;;;;86.65;82.35;;;;;;;;;;5037843;28;20048;-53
2024/02/04 09:16:58;;;;;;;76.55;72.75;;;;;;;;;;5033984;28;20041;-55
2024/02/04 09:19:24;;;;;;;66.78;63.40;;;;;;;;;;5030243;28;20098;-61
2024/02/04 09:21:49;;;;;;;63.80;60.60;;;;;;;;;;5031324;28;20037;-55
2024/02/04 09:24:15;;;;;;;63.05;59.85;;;;;;;;;;5035620;28;20471;-55
2024/02/04 09:26:40;;;;;;;57.75;54.85;;;;;;;;;;5032107;28;20087;-61
2024/02/04 09:29:06;;;;;;;58.92;55.92;;;;;;;;;;5031049;28;20040;-61
2024/02/04 09:31:31;;;;;;;54.83;52.05;;;;;;;;;;5032996;28;20038;-61
2024/02/04 09:33:57;;;;;;;50.00;47.45;;;;;;;;;;5033149;28;20037;-53
2024/02/04 09:36:23;;;;;;;41.80;39.70;;;;;;;;;;5034093;28;20033;-54
2024/02/04 09:38:48;;;;;;;41.20;39.10;;;;;;;;;;5033567;28;20048;-61
2024/02/04 09:41:13;;;;;;;39.30;37.30;;;;;;;;;;5033199;28;20524;-55
2024/02/04 09:43:39;;;;;;;36.97;35.08;;;;;;;;;;5032553;28;20041;-55
2024/02/04 09:46:05;;;;;;;32.15;30.45;;;;;;;;;;5033806;28;20355;-54
2024/02/04 09:48:32;;;;;;;32.88;31.17;;;;;;;;;;5031412;28;20032;-61
2024/02/04 09:50:57;;;;;;;33.28;31.58;;;;;;;;;;5031698;28;20033;-60
2024/02/04 09:53:34;;;;;;;31.20;29.60;;;;;;;;;;5030448;28;20021;-60
2024/02/04 09:56:02;;;;;;;31.33;29.73;;;;;;;;;;5032360;28;20841;-60
2024/02/04 09:58:27;;;;;;;30.02;28.48;;;;;;;;;;5033894;28;20112;-61
2024/02/04 10:00:53;;;;;;;30.88;29.27;;;;;;;;;;5030755;28;20145;-60
2024/02/04 10:03:19;;;;;;;31.77;30.13;;;;;;;;;;5032778;28;20052;-61
2024/02/04 10:05:44;;;;;;;31.17;29.58;;;;;;;;;;5035711;28;20021;-55
2024/02/04 10:08:10;;;;;;;33.85;32.10;;;;;;;;;;5033275;28;20358;-55
2024/02/04 10:10:36;;;;;;;34.03;32.30;;;;;;;;;;5033910;28;20094;-61
2024/02/04 10:13:06;;;;;;;33.42;31.73;;;;;;;;;;5033840;28;20043;-56
2024/02/04 10:15:32;;;;;;;33.95;32.22;;;;;;;;;;5034011;28;20041;-56
2024/02/04 10:17:57;;;;;;;35.08;33.28;;;;;;;;;;5033934;28;20091;-55
2024/02/04 10:20:22;;;;;;;36.28;34.42;;;;;;;;;;5032615;28;20422;-56
2024/02/04 10:22:49;;;;;;;37.13;35.22;;;;;;;;;;5031494;28;20032;-60
2024/02/04 10:25:16;;;;;;;36.55;34.65;;;;;;;;;;5032746;28;20607;-61
2024/02/04 10:27:42;;;;;;;36.47;34.58;;;;;;;;;;5031665;28;20033;-61
2024/02/04 10:30:08;;;;;;;38.03;36.08;;;;;;;;;;5028907;28;20328;-61
2024/02/04 10:32:34;;;;;;;37.33;35.40;;;;;;;;;;5032433;28;20049;-61
2024/02/04 10:35:00;;;;;;;35.55;33.65;;;;;;;;;;5031367;28;20040;-61
2024/02/04 10:37:26;;;;;;;36.72;34.83;;;;;;;;;;5031245;28;20309;-61
2024/02/04 10:39:51;;;;;;;39.72;37.72;;;;;;;;;;5032399;28;20106;-61
2024/02/04 10:42:20;;;;;;;37.28;35.38;;;;;;;;;;5033851;28;20030;-61
2024/02/04 10:44:49;;;;;;;38.85;36.85;;;;;;;;;;5031405;28;20039;-61
2024/02/04 10:47:17;;;;;;;37.88;35.95;;;;;;;;;;5032929;28;20041;-61
2024/02/04 10:49:55;;;;;;;38.88;36.88;;;;;;;;;;5034384;28;20185;-61
2024/02/04 10:52:23;;;;;;;38.13;36.20;;;;;;;;;;5032652;28;20043;-61
2024/02/04 10:54:49;;;;;;;40.75;38.67;;;;;;;;;;5032908;28;20536;-61
2024/02/04 10:57:20;;;;;;;40.08;38.05;;;;;;;;;;5029921;28;20034;-61
2024/02/04 10:59:47;;;;;;;44.38;42.10;;;;;;;;;;5033012;28;20425;-62
2024/02/04 11:02:15;;;;;;;40.47;38.40;;;;;;;;;;5032280;28;20037;-56
2024/02/04 11:04:42;;;;;;;43.67;41.47;;;;;;;;;;5034991;28;20075;-53
2024/02/04 11:07:09;;;;;;;43.95;41.75;;;;;;;;;;5036872;28;20095;-54
2024/02/04 11:09:36;;;;;;;43.53;41.33;;;;;;;;;;5032006;28;20049;-58
2024/02/04 11:12:06;;;;;;;43.88;41.67;;;;;;;;;;5030761;28;20045;-60
2024/02/04 11:14:33;;;;;;;42.75;40.55;;;;;;;;;;5034062;28;20064;-61
2024/02/04 11:17:21;;;;;;;43.15;40.97;;;;;;;;;;5033227;28;20029;-56
2024/02/04 11:20:16;;;;;;;45.50;43.20;;;;;;;;;;5027310;28;20088;-56
2024/02/04 11:23:11;;;;;;;40.47;38.42;;;;;;;;;;5034467;28;20037;-58
2024/02/04 11:25:43;;;;;;;41.70;39.58;;;;;;;;;;5034326;28;20047;-57
2024/02/04 11:28:11;;;;;;;40.95;38.85;;;;;;;;;;5029425;28;20515;-57
2024/02/04 11:30:36;;;;;;;43.55;41.35;;;;;;;;;;5032982;28;20498;-57
2024/02/04 11:33:05;;;;;;;45.97;43.67;;;;;;;;;;5038047;28;20052;-60
2024/02/04 11:35:32;;;;;;;47.40;45.00;;;;;;;;;;5037841;28;20038;-57
2024/02/04 11:37:57;;;;;;;45.03;42.72;;;;;;;;;;5037484;28;20040;-58
2024/02/04 11:40:25;;;;;;;44.75;42.45;;;;;;;;;;5039518;28;20033;-58
2024/02/04 11:42:51;;;;;;;42.20;40.05;;;;;;;;;;5033265;28;20029;-58
2024/02/04 11:45:16;;;;;;;45.60;43.20;;;;;;;;;;5035905;28;20514;-61
2024/02/04 11:47:42;;;;;;;45.05;42.75;;;;;;;;;;5035913;28;20099;-59
2024/02/04 11:50:09;;;;;;;41.80;39.70;;;;;;;;;;5034363;28;20037;-59
2024/02/04 11:52:34;;;;;;;41.88;39.78;;;;;;;;;;5033736;28;20036;-60
2024/02/04 11:55:00;;;;;;;43.17;40.97;;;;;;;;;;5031331;28;20033;-59
2024/02/04 11:57:26;;;;;;;42.17;40.03;;;;;;;;;;5033520;28;20029;-59
2024/02/04 11:59:57;;;;;;;36.67;34.80;;;;;;;;;;5035009;28;20094;-58
2024/02/04 12:02:23;;;;;;;41.28;39.17;;;;;;;;;;5030829;28;20110;-60
2024/02/04 12:04:48;;;;;;;41.47;39.38;;;;;;;;;;5028754;28;20072;-55
2024/02/04 12:07:14;;;;;;;40.70;38.60;;;;;;;;;;5020501;28;20507;-57
2024/02/04 12:09:41;;;;;;;41.40;39.30;;;;;;;;;;5023842;28;20041;-60
2024/02/04 12:12:06;;;;;;;40.15;38.15;;;;;;;;;;5019216;28;20037;-60
2024/02/04 12:14:34;;;;;;;40.90;38.80;;;;;;;;;;5027731;28;20029;-59
2024/02/04 12:17:08;;;;;;;41.78;39.67;;;;;;;;;;5017623;28;20049;-62
2024/02/04 12:19:33;;;;;;;42.75;40.55;;;;;;;;;;5022672;28;20084;-59
2024/02/04 12:21:58;;;;;;;42.42;40.22;;;;;;;;;;5023335;28;20102;-60
2024/02/04 12:24:24;;;;;;;42.03;39.90;;;;;;;;;;5020781;28;20116;-60
2024/02/04 12:26:50;;;;;;;41.33;39.20;;;;;;;;;;5022876;28;20079;-60
2024/02/04 12:29:15;;;;;;;43.53;41.33;;;;;;;;;;5023192;28;20075;-60
2024/02/04 12:31:41;;;;;;;41.78;39.65;;;;;;;;;;5022310;28;20069;-53
2024/02/04 12:34:08;;;;;;;43.72;41.50;;;;;;;;;;5023295;28;20029;-53
2024/02/04 12:36:33;;;;;;;42.95;40.75;;;;;;;;;;5020752;28;20427;-59
2024/02/04 12:39:03;;;;;;;44.42;42.17;;;;;;;;;;5021480;28;20076;-52
2024/02/04 12:41:32;;;;;;;42.55;40.38;;;;;;;;;;5021952;28;20100;-54
2024/02/04 12:44:00;;;;;;;42.85;40.67;;;;;;;;;;5021766;28;20040;-59
2024/02/04 12:46:26;;;;;;;43.05;40.88;;;;;;;;;;5023680;28;20044;-53
2024/02/04 12:48:55;;;;;;;44.00;41.78;;;;;;;;;;5022336;28;20056;-56
2024/02/04 12:51:27;;;;;;;45.00;42.75;;;;;;;;;;5021771;28;20103;-50
2024/02/04 12:54:06;;;;;;;43.75;41.53;;;;;;;;;;5021900;28;20106;-54
2024/02/04 12:56:45;;;;;;;43.25;41.05;;;;;;;;;;5006408;28;20491;-55
2024/02/04 12:59:11;;;;;;;45.50;43.20;;;;;;;;;;5020732;28;20119;-54
2024/02/04 13:01:39;;;;;;;41.15;39.03;;;;;;;;;;5017991;28;20038;-54
2024/02/04 13:04:05;;;;;;;42.30;40.15;;;;;;;;;;5019748;28;20044;-54
2024/02/04 13:06:31;;;;;;;46.03;43.67;;;;;;;;;;5020870;28;20037;-54
2024/02/04 13:09:00;;;;;;;42.25;40.10;;;;;;;;;;5021585;28;20056;-56
2024/02/04 13:11:26;;;;;;;43.95;41.72;;;;;;;;;;5019806;28;20083;-59
2024/02/04 13:13:51;;;;;;;44.75;42.50;;;;;;;;;;5019520;28;20065;-58
2024/02/04 13:16:19;;;;;;;42.97;40.80;;;;;;;;;;5020714;28;20095;-58
2024/02/04 13:18:51;;;;;;;41.53;39.42;;;;;;;;;;5022291;28;20037;-59
2024/02/04 13:21:19;;;;;;;42.42;40.28;;;;;;;;;;5020299;28;20609;-59
2024/02/04 13:23:45;;;;;;;42.67;40.50;;;;;;;;;;5021147;28;20041;-59
2024/02/04 13:26:10;;;;;;;44.13;41.90;;;;;;;;;;5020069;28;20041;-59
2024/02/04 13:28:37;;;;;;;41.17;39.10;;;;;;;;;;5022700;28;20448;-54
2024/02/04 13:31:02;;;;;;;44.58;42.30;;;;;;;;;;5019135;28;20037;-60
2024/02/04 13:33:27;;;;;;;45.65;43.35;;;;;;;;;;5021242;28;20037;-55
2024/02/04 13:35:53;;;;;;;47.00;44.60;;;;;;;;;;5019857;28;20048;-59
2024/02/04 13:38:18;;;;;;;49.60;47.05;;;;;;;;;;5018159;28;20095;-59
2024/02/04 13:40:44;;;;;;;46.75;44.38;;;;;;;;;;5019470;28;20068;-54
2024/02/04 13:43:09;;;;;;;47.20;44.85;;;;;;;;;;5021173;28;20044;-54
2024/02/04 13:45:34;;;;;;;45.95;43.63;;;;;;;;;;5021977;28;20033;-51
2024/02/04 13:47:59;;;;;;;44.60;42.33;;;;;;;;;;5021905;28;20037;-54
2024/02/04 13:50:25;;;;;;;41.67;39.55;;;;;;;;;;5019712;28;20017;-53
2024/02/04 13:52:50;;;;;;;45.90;43.58;;;;;;;;;;5022790;28;20396;-52
2024/02/04 13:55:16;;;;;;;42.92;40.75;;;;;;;;;;5019624;28;20044;-52
2024/02/04 13:57:41;;;;;;;45.67;43.38;;;;;;;;;;5019354;28;20120;-56
2024/02/04 14:00:07;;;;;;;43.05;40.85;;;;;;;;;;5021860;28;20360;-50